createdAt,value
2022-07-25T00:01:39.533Z,4.05
2022-07-25T00:06:43.515Z,4.03
2022-07-25T00:11:46.599Z,3.58
2022-07-25T00:16:50.756Z,4.82
2022-07-25T00:21:53.692Z,3.33
2022-07-25T00:26:56.530Z,4.18
2022-07-25T00:32:00.823Z,4.00
2022-07-25T00:37:06.101Z,5.07
2022-07-25T00:42:09.553Z,3.85
2022-07-25T00:47:13.729Z,4.45
2022-07-25T00:52:16.580Z,3.90
2022-07-25T00:57:19.420Z,4.13
2022-07-25T01:02:24.226Z,3.85
2022-07-25T01:07:27.341Z,4.40
2022-07-25T01:12:30.326Z,4.97
2022-07-25T01:17:34.695Z,5.38
2022-07-25T01:22:38.988Z,5.25
2022-07-25T01:27:42.942Z,3.65
2022-07-25T01:32:46.168Z,3.72
2022-07-25T01:37:50.375Z,4.80
2022-07-25T01:42:53.263Z,3.53
2022-07-25T01:47:56.949Z,3.38
2022-07-25T01:53:01.510Z,3.95
2022-07-25T01:58:06.333Z,3.60
2022-07-25T02:03:28.167Z,4.28
2022-07-25T02:08:32.857Z,3.08
2022-07-25T02:13:36.630Z,3.63
2022-07-25T02:18:40.773Z,3.30
2022-07-25T02:23:46.352Z,3.50
2022-07-25T02:28:50.462Z,3.53
2022-07-25T02:33:53.311Z,3.17
2022-07-25T02:38:57.513Z,2.55
2022-07-25T02:44:00.527Z,3.30
2022-07-25T02:49:05.782Z,2.60
2022-07-25T02:54:09.991Z,2.42
2022-07-25T02:59:13.535Z,2.42
2022-07-25T03:04:17.105Z,3.47
2022-07-25T03:09:21.602Z,2.28
2022-07-25T03:14:24.433Z,3.08
2022-07-25T03:19:27.348Z,2.92
2022-07-25T03:24:31.614Z,3.08
2022-07-25T03:29:34.705Z,3.42
2022-07-25T03:34:38.831Z,3.38
2022-07-25T03:39:43.366Z,3.55
2022-07-25T03:44:46.250Z,3.80
2022-07-25T03:49:49.181Z,4.90
2022-07-25T03:54:53.668Z,5.10
2022-07-25T03:59:56.551Z,5.28
2022-07-25T04:05:01.928Z,4.25
2022-07-25T04:10:07.266Z,5.32
2022-07-25T04:15:10.845Z,5.50
2022-07-25T04:20:13.882Z,4.70
2022-07-25T04:25:18.167Z,3.75
2022-07-25T04:30:23.885Z,3.75
2022-07-25T04:35:27.751Z,4.53
2022-07-25T04:40:32.033Z,3.40
2022-07-25T04:45:35.650Z,3.33
2022-07-25T04:50:38.959Z,3.55
2022-07-25T05:01:08.412Z,2.30
2022-07-25T05:06:11.415Z,2.13
2022-07-25T05:11:18.097Z,3.30
2022-07-25T05:16:20.973Z,2.28
2022-07-25T05:21:23.910Z,3.17
2022-07-25T05:26:28.073Z,2.30
2022-07-25T05:31:30.909Z,2.85
2022-07-25T05:36:34.017Z,1.98
2022-07-25T05:41:38.421Z,2.08
2022-07-25T05:46:41.295Z,2.20
2022-07-25T05:51:44.192Z,1.92
2022-07-25T05:56:48.362Z,1.90
2022-07-25T06:01:52.512Z,1.90
2022-07-25T06:06:55.358Z,1.92
2022-07-25T06:12:01.149Z,2.17
2022-07-25T06:17:05.577Z,1.55
2022-07-25T06:22:09.399Z,2.10
2022-07-25T06:27:17.256Z,1.80
2022-07-25T06:32:23.405Z,1.83
2022-07-25T06:37:28.235Z,1.90
2022-07-25T06:42:33.435Z,1.48
2022-07-25T06:47:36.391Z,2.17
2022-07-25T06:52:39.403Z,1.63
2022-07-25T06:57:44.458Z,2.40
2022-07-25T07:02:53.075Z,2.03
2022-07-25T07:07:56.070Z,1.65
2022-07-25T07:13:08.179Z,2.25
2022-07-25T07:18:11.041Z,1.77
2022-07-25T07:23:17.081Z,1.90
2022-07-25T07:28:22.770Z,2.75
2022-07-25T07:33:25.597Z,1.98
2022-07-25T07:38:28.385Z,3.67
2022-07-25T07:43:32.693Z,2.00
2022-07-25T07:48:36.138Z,2.38
2022-07-25T07:53:56.539Z,1.90
2022-07-25T07:59:00.905Z,2.22
2022-07-25T08:04:03.785Z,2.17
2022-07-25T08:09:07.174Z,1.75
2022-07-25T08:14:11.687Z,2.30
2022-07-25T08:19:14.498Z,1.58
2022-07-25T08:24:18.386Z,1.95
2022-07-25T08:29:27.774Z,2.05
2022-07-25T08:34:31.220Z,1.45
2022-07-25T08:39:59.906Z,1.77
2022-07-25T08:45:06.630Z,1.52
2022-07-25T08:50:11.955Z,1.75
2022-07-25T08:55:20.045Z,1.60
2022-07-25T09:00:26.327Z,1.80
2022-07-25T09:05:30.443Z,2.00
2022-07-25T09:10:36.034Z,2.88
2022-07-25T09:15:41.988Z,1.35
2022-07-25T09:21:14.576Z,2.35
2022-07-25T09:26:18.076Z,1.42
2022-07-25T09:31:22.833Z,2.03
2022-07-25T09:36:26.139Z,2.20
2022-07-25T09:41:35.335Z,1.80
2022-07-25T09:46:39.638Z,2.33
2022-07-25T09:51:43.298Z,1.58
2022-07-25T09:56:46.176Z,2.28
2022-07-25T10:01:56.916Z,2.05
2022-07-25T10:07:05.244Z,2.40
2022-07-25T10:12:10.532Z,1.88
2022-07-25T10:17:25.220Z,2.63
2022-07-25T10:22:55.222Z,1.55
2022-07-25T10:28:03.726Z,2.63
2022-07-25T10:33:14.313Z,2.58
2022-07-25T10:38:25.410Z,3.42
2022-07-25T10:43:52.294Z,2.25
2022-07-25T10:49:00.747Z,1.95
2022-07-25T10:54:13.993Z,2.97
2022-07-25T10:59:30.377Z,2.33
2022-07-25T11:04:34.591Z,2.50
2022-07-25T11:09:37.616Z,3.55
2022-07-25T11:14:42.725Z,2.15
2022-07-25T11:19:56.086Z,3.00
2022-07-25T11:24:59.573Z,2.20
2022-07-25T11:30:09.520Z,2.38
2022-07-25T11:35:16.961Z,2.33
2022-07-25T11:40:21.435Z,2.38
2022-07-25T11:45:25.553Z,2.78
2022-07-25T11:50:33.255Z,3.28
2022-07-25T11:55:40.196Z,2.15
2022-07-25T12:00:46.420Z,2.72
2022-07-25T12:05:51.009Z,2.72
2022-07-25T12:10:56.274Z,3.40
2022-07-25T12:16:00.673Z,2.63
2022-07-25T12:21:07.373Z,2.33
2022-07-25T12:26:11.471Z,1.65
2022-07-25T12:31:14.396Z,1.98
2022-07-25T12:36:18.700Z,1.98
2022-07-25T12:41:23.499Z,1.55
2022-07-25T12:46:26.446Z,2.08
2022-07-25T12:51:30.872Z,1.75
2022-07-25T12:56:33.762Z,2.72
2022-07-25T13:01:36.725Z,2.30
2022-07-25T13:06:41.089Z,2.47
2022-07-25T13:11:44.100Z,1.88
2022-07-25T13:17:07.681Z,2.28
2022-07-25T13:22:12.641Z,2.25
2022-07-25T13:27:15.493Z,2.38
2022-07-25T13:32:19.109Z,1.67
2022-07-25T13:37:23.497Z,2.38
2022-07-25T13:42:28.776Z,1.77
2022-07-25T13:47:35.620Z,2.10
2022-07-25T13:52:39.905Z,1.92
2022-07-25T13:57:42.781Z,1.45
2022-07-25T14:02:46.600Z,1.65
2022-07-25T14:07:50.849Z,1.88
2022-07-25T14:12:54.118Z,2.25
2022-07-25T14:17:56.981Z,1.48
2022-07-25T14:23:01.523Z,1.65
2022-07-25T14:28:04.925Z,2.70
2022-07-25T14:33:07.773Z,1.88
2022-07-25T14:38:12.397Z,1.85
2022-07-25T14:43:17.993Z,1.85
2022-07-25T14:48:21.230Z,1.27
2022-07-25T14:53:25.498Z,1.30
2022-07-25T14:58:28.399Z,1.42
2022-07-25T15:03:31.352Z,2.55
2022-07-25T15:08:35.878Z,1.95
2022-07-25T15:13:38.840Z,1.75
2022-07-25T15:19:05.343Z,1.88
2022-07-25T15:24:07.154Z,1.15
2022-07-25T15:29:11.904Z,1.80
2022-07-25T15:34:14.973Z,2.58
2022-07-25T15:39:19.560Z,2.10
2022-07-25T15:44:22.446Z,2.00
2022-07-25T15:49:25.758Z,1.70
2022-07-25T15:54:30.029Z,2.40
2022-07-25T15:59:32.990Z,2.65
2022-07-25T16:04:35.747Z,2.78
2022-07-25T16:09:39.978Z,2.50
2022-07-25T16:14:45.423Z,2.83
2022-07-25T16:19:48.643Z,2.78
2022-07-25T16:24:53.109Z,2.45
2022-07-25T16:29:56.289Z,3.53
2022-07-25T16:34:59.405Z,3.60
2022-07-25T16:40:04.053Z,3.97
2022-07-25T16:45:08.020Z,2.50
2022-07-25T16:50:10.996Z,4.15
2022-07-25T16:55:15.218Z,2.58
2022-07-25T17:00:18.433Z,3.25
2022-07-25T17:05:21.385Z,4.07
2022-07-25T17:10:25.770Z,3.30
2022-07-25T17:15:28.752Z,2.50
2022-07-25T17:20:31.611Z,3.50
2022-07-25T17:25:35.991Z,2.65
2022-07-25T17:30:38.964Z,3.13
2022-07-25T17:35:41.900Z,3.97
2022-07-25T17:40:49.045Z,4.07
2022-07-25T17:45:51.900Z,3.85
2022-07-25T17:50:55.877Z,3.30
2022-07-25T17:56:00.097Z,2.95
2022-07-25T18:01:09.892Z,3.75
2022-07-25T18:06:13.531Z,2.70
2022-07-25T18:11:17.662Z,4.07
2022-07-25T18:16:20.594Z,2.50
2022-07-25T18:21:24.873Z,3.47
2022-07-25T18:26:29.479Z,3.17
2022-07-25T18:31:32.495Z,4.10
2022-07-25T18:36:36.853Z,3.70
2022-07-25T18:41:41.095Z,4.43
2022-07-25T18:46:45.679Z,2.20
2022-07-25T18:51:48.659Z,3.05
2022-07-25T18:56:53.037Z,2.50
2022-07-25T19:01:56.607Z,3.38
2022-07-25T19:06:59.522Z,3.45
2022-07-25T19:12:03.819Z,2.13
2022-07-25T19:17:06.942Z,3.50
2022-07-25T19:22:09.867Z,4.07
2022-07-25T19:27:14.534Z,3.33
2022-07-25T19:32:18.217Z,4.00
2022-07-25T19:37:21.559Z,3.08
2022-07-25T19:42:25.743Z,3.38
2022-07-25T19:47:28.669Z,2.67
2022-07-25T19:52:31.570Z,3.15
2022-07-25T19:57:35.857Z,4.90
2022-07-25T20:02:38.969Z,4.22
2022-07-25T20:07:42.918Z,2.80
2022-07-25T20:12:47.333Z,2.70
2022-07-25T20:17:50.206Z,3.83
2022-07-25T20:22:54.728Z,3.38
2022-07-25T20:28:00.644Z,3.45
2022-07-25T20:33:05.563Z,2.90
2022-07-25T20:38:12.404Z,2.95
2022-07-25T20:43:18.343Z,3.92
2022-07-25T20:48:21.334Z,3.35
2022-07-25T20:53:24.516Z,4.05
2022-07-25T20:58:28.713Z,3.25
2022-07-25T21:03:32.073Z,3.15
2022-07-25T21:08:34.961Z,2.85
2022-07-25T21:13:40.496Z,3.55
2022-07-25T21:18:43.785Z,2.42
2022-07-25T21:23:46.685Z,2.80
2022-07-25T21:28:50.870Z,2.67
2022-07-25T21:33:53.888Z,2.70
2022-07-25T21:38:58.205Z,2.83
2022-07-25T21:44:03.044Z,3.42
2022-07-25T21:49:42.056Z,2.05
2022-07-25T21:54:48.331Z,3.20
2022-07-25T21:59:52.537Z,3.15
2022-07-25T22:04:55.508Z,2.22
2022-07-25T22:09:58.518Z,1.42
2022-07-25T22:15:04.114Z,1.48
2022-07-25T22:20:07.890Z,1.42
2022-07-25T22:25:11.236Z,1.00
2022-07-25T22:30:19.376Z,1.48
2022-07-25T22:35:22.720Z,1.65
2022-07-25T22:40:25.895Z,3.80
2022-07-25T22:45:30.390Z,2.30
2022-07-25T22:50:35.077Z,2.13
2022-07-25T22:55:38.180Z,2.30
2022-07-25T23:00:42.692Z,2.67
2022-07-25T23:05:45.579Z,3.42
2022-07-25T23:10:48.704Z,1.50
2022-07-25T23:15:53.051Z,2.90
2022-07-25T23:20:56.230Z,2.47
2022-07-25T23:26:00.273Z,2.17
2022-07-25T23:31:04.711Z,2.90
2022-07-25T23:36:09.327Z,1.83
2022-07-25T23:41:12.129Z,3.88
2022-07-25T23:46:16.431Z,2.63
2022-07-25T23:51:21.370Z,4.07
2022-07-25T23:56:24.480Z,2.25
